sensor_id;sensor_type;location;lat;lon;timestamp;temperature;humidity
12315;DHT22;23886;46.614;14.276;2023-04-15T00:00:43;5.70;99.90
12315;DHT22;23886;46.614;14.276;2023-04-15T00:03:10;5.70;99.90
12315;DHT22;23886;46.614;14.276;2023-04-15T00:05:37;5.70;99.90
12315;DHT22;23886;46.614;14.276;2023-04-15T00:08:04;5.60;99.90
12315;DHT22;23886;46.614;14.276;2023-04-15T00:10:32;5.70;99.90
12315;DHT22;23886;46.614;14.276;2023-04-15T00:13:00;5.70;99.90
12315;DHT22;23886;46.614;14.276;2023-04-15T00:15:28;5.60;99.90
12315;DHT22;23886;46.614;14.276;2023-04-15T00:17:56;5.60;99.90
12315;DHT22;23886;46.614;14.276;2023-04-15T00:20:23;5.60;99.90
12315;DHT22;23886;46.614;14.276;2023-04-15T00:22:50;5.50;99.90
12315;DHT22;23886;46.614;14.276;2023-04-15T00:25:18;5.50;99.90
12315;DHT22;23886;46.614;14.276;2023-04-15T00:27:47;5.50;99.90
12315;DHT22;23886;46.614;14.276;2023-04-15T00:30:14;5.40;99.90
12315;DHT22;23886;46.614;14.276;2023-04-15T00:32:41;5.40;99.90
12315;DHT22;23886;46.614;14.276;2023-04-15T00:35:09;5.50;99.90
12315;DHT22;23886;46.614;14.276;2023-04-15T00:37:36;5.50;99.90
12315;DHT22;23886;46.614;14.276;2023-04-15T00:40:03;5.50;99.90
12315;DHT22;23886;46.614;14.276;2023-04-15T00:42:34;5.50;99.90
12315;DHT22;23886;46.614;14.276;2023-04-15T00:45:04;5.50;99.90
12315;DHT22;23886;46.614;14.276;2023-04-15T00:47:33;5.50;99.90
12315;DHT22;23886;46.614;14.276;2023-04-15T00:50:01;5.50;99.90
12315;DHT22;23886;46.614;14.276;2023-04-15T00:52:28;5.40;99.90
12315;DHT22;23886;46.614;14.276;2023-04-15T00:54:55;5.50;99.90
12315;DHT22;23886;46.614;14.276;2023-04-15T00:57:22;5.50;99.90
12315;DHT22;23886;46.614;14.276;2023-04-15T00:59:50;5.60;99.90
12315;DHT22;23886;46.614;14.276;2023-04-15T01:02:20;5.50;99.90
12315;DHT22;23886;46.614;14.276;2023-04-15T01:04:47;5.40;99.90
12315;DHT22;23886;46.614;14.276;2023-04-15T01:07:14;5.50;99.90
12315;DHT22;23886;46.614;14.276;2023-04-15T01:09:42;5.50;99.90
12315;DHT22;23886;46.614;14.276;2023-04-15T01:12:11;5.50;99.90
12315;DHT22;23886;46.614;14.276;2023-04-15T01:14:40;5.50;99.90
12315;DHT22;23886;46.614;14.276;2023-04-15T01:17:07;5.50;99.90
12315;DHT22;23886;46.614;14.276;2023-04-15T01:19:36;5.50;99.90
12315;DHT22;23886;46.614;14.276;2023-04-15T01:22:04;5.50;99.90
12315;DHT22;23886;46.614;14.276;2023-04-15T01:24:31;5.60;99.90
12315;DHT22;23886;46.614;14.276;2023-04-15T01:27:00;5.60;99.90
12315;DHT22;23886;46.614;14.276;2023-04-15T01:29:28;5.60;99.90
12315;DHT22;23886;46.614;14.276;2023-04-15T01:31:55;5.60;99.90
12315;DHT22;23886;46.614;14.276;2023-04-15T01:34:22;5.60;99.90
12315;DHT22;23886;46.614;14.276;2023-04-15T01:36:49;5.50;99.90
12315;DHT22;23886;46.614;14.276;2023-04-15T01:39:17;5.50;99.90
12315;DHT22;23886;46.614;14.276;2023-04-15T01:41:44;5.50;99.90
12315;DHT22;23886;46.614;14.276;2023-04-15T01:44:12;5.50;99.90
12315;DHT22;23886;46.614;14.276;2023-04-15T01:46:39;5.50;99.90
12315;DHT22;23886;46.614;14.276;2023-04-15T01:49:06;5.60;99.90
12315;DHT22;23886;46.614;14.276;2023-04-15T01:51:33;5.60;99.90
12315;DHT22;23886;46.614;14.276;2023-04-15T01:54:00;5.60;99.90
12315;DHT22;23886;46.614;14.276;2023-04-15T01:56:27;5.60;99.90
12315;DHT22;23886;46.614;14.276;2023-04-15T01:58:54;5.70;99.90
12315;DHT22;23886;46.614;14.276;2023-04-15T02:01:22;5.70;99.90
12315;DHT22;23886;46.614;14.276;2023-04-15T02:03:49;5.60;99.90
12315;DHT22;23886;46.614;14.276;2023-04-15T02:06:16;5.50;99.90
12315;DHT22;23886;46.614;14.276;2023-04-15T02:08:43;5.50;99.90
12315;DHT22;23886;46.614;14.276;2023-04-15T02:11:10;5.40;99.90
12315;DHT22;23886;46.614;14.276;2023-04-15T02:13:37;5.40;99.90
12315;DHT22;23886;46.614;14.276;2023-04-15T02:16:14;5.40;99.90
12315;DHT22;23886;46.614;14.276;2023-04-15T02:18:43;5.40;99.90
12315;DHT22;23886;46.614;14.276;2023-04-15T02:21:10;5.30;99.90
12315;DHT22;23886;46.614;14.276;2023-04-15T02:23:37;5.40;99.90
12315;DHT22;23886;46.614;14.276;2023-04-15T02:26:05;5.40;99.90
12315;DHT22;23886;46.614;14.276;2023-04-15T02:28:32;5.50;99.90
12315;DHT22;23886;46.614;14.276;2023-04-15T02:30:59;5.50;99.90
12315;DHT22;23886;46.614;14.276;2023-04-15T02:33:26;5.40;99.90
12315;DHT22;23886;46.614;14.276;2023-04-15T02:35:55;5.50;99.90
12315;DHT22;23886;46.614;14.276;2023-04-15T02:38:22;5.40;99.90
12315;DHT22;23886;46.614;14.276;2023-04-15T02:40:49;5.40;99.90
12315;DHT22;23886;46.614;14.276;2023-04-15T02:43:16;5.40;99.90
12315;DHT22;23886;46.614;14.276;2023-04-15T02:45:44;5.40;99.90
12315;DHT22;23886;46.614;14.276;2023-04-15T02:48:12;5.40;99.90
12315;DHT22;23886;46.614;14.276;2023-04-15T02:50:38;5.40;99.90
12315;DHT22;23886;46.614;14.276;2023-04-15T02:53:07;5.40;99.90
12315;DHT22;23886;46.614;14.276;2023-04-15T02:55:34;5.40;99.90
12315;DHT22;23886;46.614;14.276;2023-04-15T02:58:01;5.40;99.90
12315;DHT22;23886;46.614;14.276;2023-04-15T03:00:28;5.40;99.90
12315;DHT22;23886;46.614;14.276;2023-04-15T03:02:57;5.40;99.90
12315;DHT22;23886;46.614;14.276;2023-04-15T03:05:25;5.30;99.90
12315;DHT22;23886;46.614;14.276;2023-04-15T03:07:52;5.30;99.90
12315;DHT22;23886;46.614;14.276;2023-04-15T03:10:21;5.30;99.90
12315;DHT22;23886;46.614;14.276;2023-04-15T03:12:48;5.40;99.90
12315;DHT22;23886;46.614;14.276;2023-04-15T03:15:15;5.30;99.90
12315;DHT22;23886;46.614;14.276;2023-04-15T03:17:42;5.40;99.90
12315;DHT22;23886;46.614;14.276;2023-04-15T03:20:10;5.40;99.90
12315;DHT22;23886;46.614;14.276;2023-04-15T03:22:37;5.40;99.90
12315;DHT22;23886;46.614;14.276;2023-04-15T03:25:04;5.50;99.90
12315;DHT22;23886;46.614;14.276;2023-04-15T03:27:33;5.70;99.90
12315;DHT22;23886;46.614;14.276;2023-04-15T03:30:00;5.90;99.90
12315;DHT22;23886;46.614;14.276;2023-04-15T03:32:27;6.00;99.90
12315;DHT22;23886;46.614;14.276;2023-04-15T03:34:54;6.10;99.90
12315;DHT22;23886;46.614;14.276;2023-04-15T03:37:21;6.20;99.90
12315;DHT22;23886;46.614;14.276;2023-04-15T03:39:48;6.40;99.90
12315;DHT22;23886;46.614;14.276;2023-04-15T03:42:16;6.50;99.90
12315;DHT22;23886;46.614;14.276;2023-04-15T03:44:44;6.50;99.90
12315;DHT22;23886;46.614;14.276;2023-04-15T03:47:11;6.50;99.90
12315;DHT22;23886;46.614;14.276;2023-04-15T03:49:38;6.60;99.90
12315;DHT22;23886;46.614;14.276;2023-04-15T03:52:06;6.60;99.90
12315;DHT22;23886;46.614;14.276;2023-04-15T03:54:33;6.70;99.90
12315;DHT22;23886;46.614;14.276;2023-04-15T03:57:00;6.70;99.90
12315;DHT22;23886;46.614;14.276;2023-04-15T03:59:27;6.60;99.90
12315;DHT22;23886;46.614;14.276;2023-04-15T04:01:55;6.60;99.90
12315;DHT22;23886;46.614;14.276;2023-04-15T04:04:22;6.70;99.90
12315;DHT22;23886;46.614;14.276;2023-04-15T04:06:49;6.70;99.90
12315;DHT22;23886;46.614;14.276;2023-04-15T04:09:16;6.70;99.90
12315;DHT22;23886;46.614;14.276;2023-04-15T04:14:11;6.90;99.90
12315;DHT22;23886;46.614;14.276;2023-04-15T04:16:38;7.00;99.90
12315;DHT22;23886;46.614;14.276;2023-04-15T04:19:06;7.10;99.90
12315;DHT22;23886;46.614;14.276;2023-04-15T04:21:33;7.20;99.90
12315;DHT22;23886;46.614;14.276;2023-04-15T04:24:01;7.20;99.90
12315;DHT22;23886;46.614;14.276;2023-04-15T04:26:28;7.20;99.90
12315;DHT22;23886;46.614;14.276;2023-04-15T04:28:55;7.30;99.90
12315;DHT22;23886;46.614;14.276;2023-04-15T04:31:23;7.10;99.90
12315;DHT22;23886;46.614;14.276;2023-04-15T04:33:50;7.10;99.90
12315;DHT22;23886;46.614;14.276;2023-04-15T04:36:18;7.10;99.90
12315;DHT22;23886;46.614;14.276;2023-04-15T04:38:45;7.10;99.90
12315;DHT22;23886;46.614;14.276;2023-04-15T04:41:12;7.00;99.90
12315;DHT22;23886;46.614;14.276;2023-04-15T04:43:39;7.10;99.90
12315;DHT22;23886;46.614;14.276;2023-04-15T04:46:06;7.20;99.90
12315;DHT22;23886;46.614;14.276;2023-04-15T04:48:33;7.30;99.90
12315;DHT22;23886;46.614;14.276;2023-04-15T04:51:01;7.30;99.90
12315;DHT22;23886;46.614;14.276;2023-04-15T04:53:29;7.30;99.90
12315;DHT22;23886;46.614;14.276;2023-04-15T04:58:24;7.50;99.90
12315;DHT22;23886;46.614;14.276;2023-04-15T05:00:51;7.50;99.90
12315;DHT22;23886;46.614;14.276;2023-04-15T05:03:18;7.50;99.90
12315;DHT22;23886;46.614;14.276;2023-04-15T05:05:45;7.60;99.90
12315;DHT22;23886;46.614;14.276;2023-04-15T05:08:13;7.50;99.90
12315;DHT22;23886;46.614;14.276;2023-04-15T05:10:42;7.50;99.90
12315;DHT22;23886;46.614;14.276;2023-04-15T05:13:09;7.50;99.90
12315;DHT22;23886;46.614;14.276;2023-04-15T05:15:37;7.50;99.90
12315;DHT22;23886;46.614;14.276;2023-04-15T05:18:05;7.60;99.90
12315;DHT22;23886;46.614;14.276;2023-04-15T05:20:32;7.60;99.90
12315;DHT22;23886;46.614;14.276;2023-04-15T05:23:00;7.60;99.90
12315;DHT22;23886;46.614;14.276;2023-04-15T05:25:27;7.60;99.90
12315;DHT22;23886;46.614;14.276;2023-04-15T05:27:55;7.60;99.90
12315;DHT22;23886;46.614;14.276;2023-04-15T05:30:22;7.70;99.90
12315;DHT22;23886;46.614;14.276;2023-04-15T05:32:49;7.70;99.90
12315;DHT22;23886;46.614;14.276;2023-04-15T05:35:16;7.70;99.90
12315;DHT22;23886;46.614;14.276;2023-04-15T05:37:44;7.60;99.90
12315;DHT22;23886;46.614;14.276;2023-04-15T05:40:11;7.60;99.90
12315;DHT22;23886;46.614;14.276;2023-04-15T05:42:38;7.60;99.90
12315;DHT22;23886;46.614;14.276;2023-04-15T05:45:08;7.60;99.90
12315;DHT22;23886;46.614;14.276;2023-04-15T05:47:35;7.70;99.90
12315;DHT22;23886;46.614;14.276;2023-04-15T05:50:02;7.70;99.90
12315;DHT22;23886;46.614;14.276;2023-04-15T05:52:30;7.80;99.90
12315;DHT22;23886;46.614;14.276;2023-04-15T05:54:57;7.80;99.90
12315;DHT22;23886;46.614;14.276;2023-04-15T05:57:25;7.80;99.90
12315;DHT22;23886;46.614;14.276;2023-04-15T05:59:51;7.90;99.90
12315;DHT22;23886;46.614;14.276;2023-04-15T06:02:20;7.80;99.90
12315;DHT22;23886;46.614;14.276;2023-04-15T06:04:47;7.80;99.90
12315;DHT22;23886;46.614;14.276;2023-04-15T06:07:14;7.80;99.90
12315;DHT22;23886;46.614;14.276;2023-04-15T06:09:41;7.80;99.90
12315;DHT22;23886;46.614;14.276;2023-04-15T06:12:09;7.90;99.90
12315;DHT22;23886;46.614;14.276;2023-04-15T06:14:37;7.90;99.90
12315;DHT22;23886;46.614;14.276;2023-04-15T06:17:05;8.00;99.90
12315;DHT22;23886;46.614;14.276;2023-04-15T06:19:33;8.10;99.90
12315;DHT22;23886;46.614;14.276;2023-04-15T06:22:01;8.20;99.90
12315;DHT22;23886;46.614;14.276;2023-04-15T06:24:28;8.20;99.90
12315;DHT22;23886;46.614;14.276;2023-04-15T06:26:56;8.20;99.90
12315;DHT22;23886;46.614;14.276;2023-04-15T06:29:23;8.20;99.90
12315;DHT22;23886;46.614;14.276;2023-04-15T06:31:50;8.20;99.90
12315;DHT22;23886;46.614;14.276;2023-04-15T06:34:17;8.10;99.90
12315;DHT22;23886;46.614;14.276;2023-04-15T06:36:45;8.10;99.90
12315;DHT22;23886;46.614;14.276;2023-04-15T06:39:13;8.00;99.90
12315;DHT22;23886;46.614;14.276;2023-04-15T06:41:40;7.90;99.90
12315;DHT22;23886;46.614;14.276;2023-04-15T06:44:07;8.00;99.90
12315;DHT22;23886;46.614;14.276;2023-04-15T06:46:34;7.90;99.90
12315;DHT22;23886;46.614;14.276;2023-04-15T06:49:00;7.90;99.90
12315;DHT22;23886;46.614;14.276;2023-04-15T06:51:28;7.90;99.90
12315;DHT22;23886;46.614;14.276;2023-04-15T06:53:57;7.80;99.90
12315;DHT22;23886;46.614;14.276;2023-04-15T06:56:24;7.90;99.90
12315;DHT22;23886;46.614;14.276;2023-04-15T06:58:51;8.00;99.90
12315;DHT22;23886;46.614;14.276;2023-04-15T07:01:18;8.00;99.90
12315;DHT22;23886;46.614;14.276;2023-04-15T07:03:45;8.00;99.90
12315;DHT22;23886;46.614;14.276;2023-04-15T07:06:12;8.00;99.90
12315;DHT22;23886;46.614;14.276;2023-04-15T07:08:39;8.00;99.90
12315;DHT22;23886;46.614;14.276;2023-04-15T07:11:08;8.00;99.90
12315;DHT22;23886;46.614;14.276;2023-04-15T07:13:36;8.00;99.90
12315;DHT22;23886;46.614;14.276;2023-04-15T07:16:03;8.00;99.90
12315;DHT22;23886;46.614;14.276;2023-04-15T07:18:30;7.90;99.90
12315;DHT22;23886;46.614;14.276;2023-04-15T07:20:57;7.90;99.90
12315;DHT22;23886;46.614;14.276;2023-04-15T07:23:24;8.00;99.90
12315;DHT22;23886;46.614;14.276;2023-04-15T07:25:51;8.10;99.90
12315;DHT22;23886;46.614;14.276;2023-04-15T07:28:19;7.90;99.90
12315;DHT22;23886;46.614;14.276;2023-04-15T07:30:47;7.80;99.90
12315;DHT22;23886;46.614;14.276;2023-04-15T07:33:14;7.60;99.90
12315;DHT22;23886;46.614;14.276;2023-04-15T07:35:41;7.60;99.90
12315;DHT22;23886;46.614;14.276;2023-04-15T07:38:08;7.70;99.90
12315;DHT22;23886;46.614;14.276;2023-04-15T07:40:37;7.60;99.90
12315;DHT22;23886;46.614;14.276;2023-04-15T07:43:05;7.70;99.90
12315;DHT22;23886;46.614;14.276;2023-04-15T07:45:33;7.70;99.90
12315;DHT22;23886;46.614;14.276;2023-04-15T07:48:00;7.70;99.90
12315;DHT22;23886;46.614;14.276;2023-04-15T07:50:28;7.60;99.90
12315;DHT22;23886;46.614;14.276;2023-04-15T07:52:55;7.50;99.90
12315;DHT22;23886;46.614;14.276;2023-04-15T07:55:22;7.60;99.90
12315;DHT22;23886;46.614;14.276;2023-04-15T07:57:49;7.60;99.90
12315;DHT22;23886;46.614;14.276;2023-04-15T08:00:16;7.70;99.90
12315;DHT22;23886;46.614;14.276;2023-04-15T08:02:45;7.70;99.90
12315;DHT22;23886;46.614;14.276;2023-04-15T08:05:12;7.80;99.90
12315;DHT22;23886;46.614;14.276;2023-04-15T08:07:40;7.90;99.90
12315;DHT22;23886;46.614;14.276;2023-04-15T08:10:07;7.80;99.90
12315;DHT22;23886;46.614;14.276;2023-04-15T08:12:35;7.60;99.90
12315;DHT22;23886;46.614;14.276;2023-04-15T08:15:03;7.70;99.90
12315;DHT22;23886;46.614;14.276;2023-04-15T08:17:30;7.80;99.90
12315;DHT22;23886;46.614;14.276;2023-04-15T08:19:58;8.00;99.90
12315;DHT22;23886;46.614;14.276;2023-04-15T08:22:25;7.90;99.90
12315;DHT22;23886;46.614;14.276;2023-04-15T08:24:53;7.80;99.90
12315;DHT22;23886;46.614;14.276;2023-04-15T08:27:20;7.90;99.90
12315;DHT22;23886;46.614;14.276;2023-04-15T08:29:47;7.90;99.90
12315;DHT22;23886;46.614;14.276;2023-04-15T08:32:14;8.00;99.90
12315;DHT22;23886;46.614;14.276;2023-04-15T08:34:41;7.90;99.90
12315;DHT22;23886;46.614;14.276;2023-04-15T08:37:09;7.90;99.90
12315;DHT22;23886;46.614;14.276;2023-04-15T08:39:36;7.80;99.90
12315;DHT22;23886;46.614;14.276;2023-04-15T08:42:07;7.90;99.90
12315;DHT22;23886;46.614;14.276;2023-04-15T08:44:37;7.80;99.90
12315;DHT22;23886;46.614;14.276;2023-04-15T08:47:07;7.90;99.90
12315;DHT22;23886;46.614;14.276;2023-04-15T08:49:38;8.00;99.90
12315;DHT22;23886;46.614;14.276;2023-04-15T08:52:06;8.10;99.90
12315;DHT22;23886;46.614;14.276;2023-04-15T08:54:36;8.10;99.90
12315;DHT22;23886;46.614;14.276;2023-04-15T08:57:03;8.20;99.90
12315;DHT22;23886;46.614;14.276;2023-04-15T08:59:30;8.30;99.90
12315;DHT22;23886;46.614;14.276;2023-04-15T09:01:58;8.20;99.90
12315;DHT22;23886;46.614;14.276;2023-04-15T09:04:26;8.10;99.90
12315;DHT22;23886;46.614;14.276;2023-04-15T09:06:53;8.00;99.90
12315;DHT22;23886;46.614;14.276;2023-04-15T09:09:21;8.20;99.90
12315;DHT22;23886;46.614;14.276;2023-04-15T09:11:50;8.10;99.90
12315;DHT22;23886;46.614;14.276;2023-04-15T09:14:17;8.10;99.90
12315;DHT22;23886;46.614;14.276;2023-04-15T09:16:57;8.20;99.90
12315;DHT22;23886;46.614;14.276;2023-04-15T09:19:24;8.30;99.90
12315;DHT22;23886;46.614;14.276;2023-04-15T09:21:52;8.60;99.90
12315;DHT22;23886;46.614;14.276;2023-04-15T09:24:19;8.60;99.90
12315;DHT22;23886;46.614;14.276;2023-04-15T09:26:47;8.50;99.90
12315;DHT22;23886;46.614;14.276;2023-04-15T09:29:19;8.70;99.90
12315;DHT22;23886;46.614;14.276;2023-04-15T09:31:46;8.80;99.90
12315;DHT22;23886;46.614;14.276;2023-04-15T09:34:13;8.60;99.90
12315;DHT22;23886;46.614;14.276;2023-04-15T09:36:55;8.50;99.90
12315;DHT22;23886;46.614;14.276;2023-04-15T09:39:22;8.80;99.90
12315;DHT22;23886;46.614;14.276;2023-04-15T09:42:07;8.80;99.90
12315;DHT22;23886;46.614;14.276;2023-04-15T09:44:36;8.70;99.90
12315;DHT22;23886;46.614;14.276;2023-04-15T09:47:03;8.90;99.90
12315;DHT22;23886;46.614;14.276;2023-04-15T09:49:31;8.90;99.90
12315;DHT22;23886;46.614;14.276;2023-04-15T09:51:59;8.80;99.90
12315;DHT22;23886;46.614;14.276;2023-04-15T09:54:32;8.80;99.90
12315;DHT22;23886;46.614;14.276;2023-04-15T09:57:05;8.80;99.90
12315;DHT22;23886;46.614;14.276;2023-04-15T09:59:33;8.80;99.90
12315;DHT22;23886;46.614;14.276;2023-04-15T10:02:03;8.70;99.90
12315;DHT22;23886;46.614;14.276;2023-04-15T10:04:34;8.90;99.90
12315;DHT22;23886;46.614;14.276;2023-04-15T10:07:03;9.30;99.90
12315;DHT22;23886;46.614;14.276;2023-04-15T10:09:31;9.20;99.90
12315;DHT22;23886;46.614;14.276;2023-04-15T10:11:59;8.90;99.90
12315;DHT22;23886;46.614;14.276;2023-04-15T10:14:27;9.00;99.90
12315;DHT22;23886;46.614;14.276;2023-04-15T10:17:00;8.80;99.90
12315;DHT22;23886;46.614;14.276;2023-04-15T10:19:30;8.80;99.90
12315;DHT22;23886;46.614;14.276;2023-04-15T10:21:59;8.90;99.90
12315;DHT22;23886;46.614;14.276;2023-04-15T10:24:26;8.80;99.90
12315;DHT22;23886;46.614;14.276;2023-04-15T10:26:54;9.10;99.90
12315;DHT22;23886;46.614;14.276;2023-04-15T10:29:23;9.10;99.90
12315;DHT22;23886;46.614;14.276;2023-04-15T10:31:52;9.30;99.90
12315;DHT22;23886;46.614;14.276;2023-04-15T10:34:22;9.30;99.90
12315;DHT22;23886;46.614;14.276;2023-04-15T10:36:49;9.20;99.90
12315;DHT22;23886;46.614;14.276;2023-04-15T10:39:42;9.50;99.90
12315;DHT22;23886;46.614;14.276;2023-04-15T10:42:10;9.60;99.90
12315;DHT22;23886;46.614;14.276;2023-04-15T10:44:38;9.90;99.90
12315;DHT22;23886;46.614;14.276;2023-04-15T10:47:09;9.80;99.90
12315;DHT22;23886;46.614;14.276;2023-04-15T10:49:44;9.60;99.90
12315;DHT22;23886;46.614;14.276;2023-04-15T10:52:11;9.50;99.90
12315;DHT22;23886;46.614;14.276;2023-04-15T10:54:40;9.50;99.90
12315;DHT22;23886;46.614;14.276;2023-04-15T10:57:08;9.70;99.90
12315;DHT22;23886;46.614;14.276;2023-04-15T11:00:01;9.80;99.90
12315;DHT22;23886;46.614;14.276;2023-04-15T11:02:53;9.70;99.90
12315;DHT22;23886;46.614;14.276;2023-04-15T11:07:58;9.80;99.90
12315;DHT22;23886;46.614;14.276;2023-04-15T11:10:50;9.70;99.90
12315;DHT22;23886;46.614;14.276;2023-04-15T11:13:27;9.70;99.90
12315;DHT22;23886;46.614;14.276;2023-04-15T11:16:00;10.00;99.90
12315;DHT22;23886;46.614;14.276;2023-04-15T11:18:32;10.40;99.90
12315;DHT22;23886;46.614;14.276;2023-04-15T11:21:03;10.30;99.90
12315;DHT22;23886;46.614;14.276;2023-04-15T11:23:35;10.10;99.90
12315;DHT22;23886;46.614;14.276;2023-04-15T11:26:04;10.40;99.90
12315;DHT22;23886;46.614;14.276;2023-04-15T11:28:32;10.70;99.90
12315;DHT22;23886;46.614;14.276;2023-04-15T11:31:05;10.60;99.90
12315;DHT22;23886;46.614;14.276;2023-04-15T11:33:33;10.50;99.90
12315;DHT22;23886;46.614;14.276;2023-04-15T11:36:01;10.30;99.90
12315;DHT22;23886;46.614;14.276;2023-04-15T11:38:29;10.40;99.90
12315;DHT22;23886;46.614;14.276;2023-04-15T11:40:57;10.80;99.90
12315;DHT22;23886;46.614;14.276;2023-04-15T11:43:24;10.60;99.90
12315;DHT22;23886;46.614;14.276;2023-04-15T11:45:52;10.80;99.90
12315;DHT22;23886;46.614;14.276;2023-04-15T11:48:23;10.70;99.90
12315;DHT22;23886;46.614;14.276;2023-04-15T11:50:54;10.70;99.90
12315;DHT22;23886;46.614;14.276;2023-04-15T11:53:23;11.10;99.90
12315;DHT22;23886;46.614;14.276;2023-04-15T11:55:52;11.70;99.90
12315;DHT22;23886;46.614;14.276;2023-04-15T11:58:20;11.80;99.90
12315;DHT22;23886;46.614;14.276;2023-04-15T12:00:49;11.90;99.90
12315;DHT22;23886;46.614;14.276;2023-04-15T12:03:20;11.90;99.90
12315;DHT22;23886;46.614;14.276;2023-04-15T12:06:11;11.60;99.90
12315;DHT22;23886;46.614;14.276;2023-04-15T12:09:08;11.60;99.90
12315;DHT22;23886;46.614;14.276;2023-04-15T12:11:43;11.70;99.90
12315;DHT22;23886;46.614;14.276;2023-04-15T12:14:18;11.70;99.90
12315;DHT22;23886;46.614;14.276;2023-04-15T12:16:47;11.50;99.90
12315;DHT22;23886;46.614;14.276;2023-04-15T12:19:15;12.00;99.90
12315;DHT22;23886;46.614;14.276;2023-04-15T12:21:45;12.20;99.90
12315;DHT22;23886;46.614;14.276;2023-04-15T12:24:13;12.20;99.90
12315;DHT22;23886;46.614;14.276;2023-04-15T12:26:45;12.10;99.90
12315;DHT22;23886;46.614;14.276;2023-04-15T12:29:13;12.20;99.90
12315;DHT22;23886;46.614;14.276;2023-04-15T12:31:51;12.10;99.90
12315;DHT22;23886;46.614;14.276;2023-04-15T12:34:25;12.50;99.90
12315;DHT22;23886;46.614;14.276;2023-04-15T12:36:53;12.80;99.90
12315;DHT22;23886;46.614;14.276;2023-04-15T12:39:22;12.30;99.90
12315;DHT22;23886;46.614;14.276;2023-04-15T12:41:50;12.90;99.90
12315;DHT22;23886;46.614;14.276;2023-04-15T12:44:17;12.70;99.90
12315;DHT22;23886;46.614;14.276;2023-04-15T12:46:44;12.80;99.90
12315;DHT22;23886;46.614;14.276;2023-04-15T12:49:12;12.90;99.90
12315;DHT22;23886;46.614;14.276;2023-04-15T12:51:40;13.10;99.90
12315;DHT22;23886;46.614;14.276;2023-04-15T12:54:07;13.00;99.90
12315;DHT22;23886;46.614;14.276;2023-04-15T12:56:36;13.00;99.90
12315;DHT22;23886;46.614;14.276;2023-04-15T12:59:03;13.00;99.90
12315;DHT22;23886;46.614;14.276;2023-04-15T13:01:31;13.30;99.80
12315;DHT22;23886;46.614;14.276;2023-04-15T13:03:57;12.80;99.90
12315;DHT22;23886;46.614;14.276;2023-04-15T13:06:25;12.50;99.90
12315;DHT22;23886;46.614;14.276;2023-04-15T13:08:51;12.30;98.50
12315;DHT22;23886;46.614;14.276;2023-04-15T13:11:19;12.30;99.00
12315;DHT22;23886;46.614;14.276;2023-04-15T13:13:48;12.80;98.40
12315;DHT22;23886;46.614;14.276;2023-04-15T13:16:16;13.40;96.80
12315;DHT22;23886;46.614;14.276;2023-04-15T13:18:44;13.50;95.60
12315;DHT22;23886;46.614;14.276;2023-04-15T13:21:12;13.00;95.80
12315;DHT22;23886;46.614;14.276;2023-04-15T13:23:40;13.30;95.30
12315;DHT22;23886;46.614;14.276;2023-04-15T13:26:07;12.90;94.90
12315;DHT22;23886;46.614;14.276;2023-04-15T13:28:34;13.00;95.40
12315;DHT22;23886;46.614;14.276;2023-04-15T13:31:03;13.40;94.10
12315;DHT22;23886;46.614;14.276;2023-04-15T13:33:30;13.00;94.10
12315;DHT22;23886;46.614;14.276;2023-04-15T13:35:57;12.60;94.20
12315;DHT22;23886;46.614;14.276;2023-04-15T13:38:25;12.40;94.20
12315;DHT22;23886;46.614;14.276;2023-04-15T13:40:52;12.00;93.90
12315;DHT22;23886;46.614;14.276;2023-04-15T13:43:19;11.80;94.80
12315;DHT22;23886;46.614;14.276;2023-04-15T13:45:46;12.10;94.60
12315;DHT22;23886;46.614;14.276;2023-04-15T13:48:14;12.00;93.30
12315;DHT22;23886;46.614;14.276;2023-04-15T13:50:41;12.00;94.10
12315;DHT22;23886;46.614;14.276;2023-04-15T13:53:10;12.10;94.10
12315;DHT22;23886;46.614;14.276;2023-04-15T13:55:37;12.30;93.80
12315;DHT22;23886;46.614;14.276;2023-04-15T13:58:06;12.30;93.30
12315;DHT22;23886;46.614;14.276;2023-04-15T14:00:33;12.50;92.70
12315;DHT22;23886;46.614;14.276;2023-04-15T14:03:00;12.60;92.70
12315;DHT22;23886;46.614;14.276;2023-04-15T14:05:29;12.60;94.00
12315;DHT22;23886;46.614;14.276;2023-04-15T14:07:57;12.80;93.00
12315;DHT22;23886;46.614;14.276;2023-04-15T14:10:24;12.80;92.50
12315;DHT22;23886;46.614;14.276;2023-04-15T14:12:51;12.50;92.10
12315;DHT22;23886;46.614;14.276;2023-04-15T14:15:18;13.00;92.40
12315;DHT22;23886;46.614;14.276;2023-04-15T14:17:45;12.80;91.50
12315;DHT22;23886;46.614;14.276;2023-04-15T14:20:12;12.80;90.80
12315;DHT22;23886;46.614;14.276;2023-04-15T14:22:41;12.70;91.10
12315;DHT22;23886;46.614;14.276;2023-04-15T14:25:08;12.40;92.00
12315;DHT22;23886;46.614;14.276;2023-04-15T14:27:35;12.60;92.80
12315;DHT22;23886;46.614;14.276;2023-04-15T14:30:03;12.60;92.20
12315;DHT22;23886;46.614;14.276;2023-04-15T14:32:30;12.80;92.00
12315;DHT22;23886;46.614;14.276;2023-04-15T14:34:57;12.60;90.90
12315;DHT22;23886;46.614;14.276;2023-04-15T14:37:24;12.40;91.80
12315;DHT22;23886;46.614;14.276;2023-04-15T14:39:53;12.70;91.60
12315;DHT22;23886;46.614;14.276;2023-04-15T14:42:20;12.60;91.40
12315;DHT22;23886;46.614;14.276;2023-04-15T14:44:47;12.90;91.70
12315;DHT22;23886;46.614;14.276;2023-04-15T14:47:14;13.00;91.30
12315;DHT22;23886;46.614;14.276;2023-04-15T14:49:41;12.60;91.60
12315;DHT22;23886;46.614;14.276;2023-04-15T14:52:08;12.30;92.30
12315;DHT22;23886;46.614;14.276;2023-04-15T14:54:35;12.60;93.10
12315;DHT22;23886;46.614;14.276;2023-04-15T14:57:03;12.60;92.40
12315;DHT22;23886;46.614;14.276;2023-04-15T14:59:30;12.50;92.50
12315;DHT22;23886;46.614;14.276;2023-04-15T15:01:57;12.20;93.00
12315;DHT22;23886;46.614;14.276;2023-04-15T15:04:24;12.60;93.30
12315;DHT22;23886;46.614;14.276;2023-04-15T15:06:51;13.00;93.10
12315;DHT22;23886;46.614;14.276;2023-04-15T15:09:18;13.10;92.10
12315;DHT22;23886;46.614;14.276;2023-04-15T15:11:48;12.90;91.10
12315;DHT22;23886;46.614;14.276;2023-04-15T15:14:16;13.00;91.30
12315;DHT22;23886;46.614;14.276;2023-04-15T15:16:43;13.10;91.00
12315;DHT22;23886;46.614;14.276;2023-04-15T15:19:10;13.60;92.40
12315;DHT22;23886;46.614;14.276;2023-04-15T15:21:37;14.20;89.40
12315;DHT22;23886;46.614;14.276;2023-04-15T15:24:05;14.50;89.50
12315;DHT22;23886;46.614;14.276;2023-04-15T15:26:32;14.90;89.20
12315;DHT22;23886;46.614;14.276;2023-04-15T15:28:59;14.40;83.80
12315;DHT22;23886;46.614;14.276;2023-04-15T15:31:27;15.20;86.20
12315;DHT22;23886;46.614;14.276;2023-04-15T15:33:54;16.30;85.60
12315;DHT22;23886;46.614;14.276;2023-04-15T15:36:21;16.90;83.70
12315;DHT22;23886;46.614;14.276;2023-04-15T15:38:48;16.20;84.80
12315;DHT22;23886;46.614;14.276;2023-04-15T15:41:15;16.60;83.60